Time;durP1;ratioP1;P1;durP2;ratioP2;P2;SDS_P1;SDS_P2;PMS_P1;PMS_P2;Temp;Humidity;BMP_temperature;BMP_pressure;BME280_temperature;BME280_humidity;BME280_pressure;Samples;Min_cycle;Max_cycle;Signal;HPM_P1;HPM_P2
2022/09/10 00:01:13;;;;;;;;;;;20.70;99.90;;;;;;4591999;19;19911;-27
2022/09/10 00:02:44;;;;;;;;;;;20.60;99.90;;;;;;4593219;19;20337;-25
2022/09/10 00:04:15;;;;;;;;;;;20.60;99.90;;;;;;4593608;19;19918;-25
2022/09/10 00:05:46;;;;;;;;;;;20.60;99.90;;;;;;4592277;19;19922;-25
2022/09/10 00:07:17;;;;;;;;;;;20.60;99.90;;;;;;4591680;19;19911;-25
2022/09/10 00:08:48;;;;;;;;;;;20.60;99.90;;;;;;4591403;19;19926;-25
2022/09/10 00:10:19;;;;;;;;;;;20.60;99.90;;;;;;4593113;19;19979;-25
2022/09/10 00:11:50;;;;;;;;;;;20.60;99.90;;;;;;4593016;19;20337;-26
2022/09/10 00:13:21;;;;;;;;;;;20.50;99.90;;;;;;4593191;19;19915;-25
2022/09/10 00:14:53;;;;;;;;;;;20.60;99.90;;;;;;4593258;19;19922;-25
2022/09/10 00:16:24;;;;;;;;;;;20.60;99.90;;;;;;4593219;19;19922;-25
2022/09/10 00:17:55;;;;;;;;;;;20.60;99.90;;;;;;4593120;19;19938;-24
2022/09/10 00:19:27;;;;;;;;;;;20.60;99.90;;;;;;4592962;19;19914;-25
2022/09/10 00:20:59;;;;;;;;;;;20.60;99.90;;;;;;4591840;19;19929;-25
2022/09/10 00:22:29;;;;;;;;;;;20.60;99.90;;;;;;4592089;19;19999;-27
2022/09/10 00:24:01;;;;;;;;;;;20.60;99.90;;;;;;4592280;19;19919;-25
2022/09/10 00:25:32;;;;;;;;;;;20.60;99.90;;;;;;4592044;19;20296;-26
2022/09/10 00:27:03;;;;;;;;;;;20.60;99.90;;;;;;4591702;19;19923;-27
2022/09/10 00:28:34;;;;;;;;;;;20.60;99.90;;;;;;4592367;19;19911;-25
2022/09/10 00:30:05;;;;;;;;;;;20.60;99.90;;;;;;4591855;19;19956;-25
2022/09/10 00:31:36;;;;;;;;;;;20.60;99.90;;;;;;4592240;19;19915;-26
2022/09/10 00:33:08;;;;;;;;;;;20.60;99.90;;;;;;4592611;19;19923;-25
2022/09/10 00:34:39;;;;;;;;;;;20.60;99.90;;;;;;4592690;19;19918;-26
2022/09/10 00:36:38;;;;;;;;;;;20.60;99.90;;;;;;4592772;19;19932;-25
2022/09/10 00:38:10;;;;;;;;;;;20.60;99.90;;;;;;4591089;19;20257;-27
2022/09/10 00:39:40;;;;;;;;;;;20.60;99.90;;;;;;4592406;19;20404;-26
2022/09/10 00:41:13;;;;;;;;;;;20.60;99.90;;;;;;4592366;19;19994;-24
2022/09/10 00:42:44;;;;;;;;;;;20.60;99.90;;;;;;4592354;19;19919;-25
2022/09/10 00:44:33;;;;;;;;;;;20.60;99.90;;;;;;4592698;19;19941;-25
2022/09/10 00:46:04;;;;;;;;;;;20.50;99.90;;;;;;4590957;19;20332;-25
2022/09/10 00:47:36;;;;;;;;;;;20.60;99.90;;;;;;4592570;19;19919;-27
2022/09/10 00:49:16;;;;;;;;;;;20.50;99.90;;;;;;4592475;19;19919;-25
2022/09/10 00:50:48;;;;;;;;;;;20.50;99.90;;;;;;4591245;19;19918;-26
2022/09/10 00:52:19;;;;;;;;;;;20.60;99.90;;;;;;4591357;19;20322;-25
2022/09/10 00:53:50;;;;;;;;;;;20.50;99.90;;;;;;4592249;19;19923;-25
2022/09/10 00:55:22;;;;;;;;;;;20.60;99.90;;;;;;4592406;19;19934;-25
2022/09/10 00:56:53;;;;;;;;;;;20.50;99.90;;;;;;4592345;19;19927;-25
2022/09/10 00:58:25;;;;;;;;;;;20.50;99.90;;;;;;4591201;19;19919;-25
2022/09/10 00:59:59;;;;;;;;;;;20.60;99.90;;;;;;4591047;19;20288;-25
2022/09/10 01:01:32;;;;;;;;;;;20.50;99.90;;;;;;4590940;19;19918;-25
2022/09/10 01:03:04;;;;;;;;;;;20.50;99.90;;;;;;4590874;19;20392;-25
2022/09/10 01:04:35;;;;;;;;;;;20.50;99.90;;;;;;4591899;19;19951;-26
2022/09/10 01:06:06;;;;;;;;;;;20.50;99.90;;;;;;4590990;19;19915;-25
2022/09/10 01:07:37;;;;;;;;;;;20.50;99.90;;;;;;4591097;19;19918;-27
2022/09/10 01:09:08;;;;;;;;;;;20.50;99.90;;;;;;4589869;19;20266;-25
2022/09/10 01:10:57;;;;;;;;;;;20.50;99.90;;;;;;4591047;19;19915;-25
2022/09/10 01:12:43;;;;;;;;;;;20.50;99.90;;;;;;4591425;19;19919;-26
2022/09/10 01:14:28;;;;;;;;;;;20.50;99.90;;;;;;4590966;19;19947;-25
2022/09/10 01:16:18;;;;;;;;;;;20.50;99.90;;;;;;4591820;19;19915;-25
2022/09/10 01:17:48;;;;;;;;;;;20.50;99.90;;;;;;4591680;19;19990;-25
2022/09/10 01:19:40;;;;;;;;;;;20.50;99.90;;;;;;4591592;19;20264;-25
2022/09/10 01:21:13;;;;;;;;;;;20.50;99.90;;;;;;4591794;19;19994;-26
2022/09/10 01:23:04;;;;;;;;;;;20.50;99.90;;;;;;4591664;19;19915;-27
2022/09/10 01:24:47;;;;;;;;;;;20.50;99.90;;;;;;4590549;19;19938;-25
2022/09/10 01:26:33;;;;;;;;;;;20.50;99.90;;;;;;4591280;19;19931;-25
2022/09/10 01:28:05;;;;;;;;;;;20.50;99.90;;;;;;4591749;19;19941;-25
2022/09/10 01:29:39;;;;;;;;;;;20.50;99.90;;;;;;4591797;19;19918;-25
2022/09/10 01:31:13;;;;;;;;;;;20.50;99.90;;;;;;4591844;19;19942;-25
2022/09/10 01:32:47;;;;;;;;;;;20.50;99.90;;;;;;4590287;19;20354;-25
2022/09/10 01:34:26;;;;;;;;;;;20.50;99.90;;;;;;4590497;19;19915;-25
2022/09/10 01:35:58;;;;;;;;;;;20.60;99.90;;;;;;4591333;19;19932;-26
2022/09/10 01:37:30;;;;;;;;;;;20.50;99.90;;;;;;4590065;19;20230;-25
2022/09/10 01:39:00;;;;;;;;;;;20.60;99.90;;;;;;4588870;19;20018;-25
2022/09/10 01:40:32;;;;;;;;;;;20.60;99.90;;;;;;4589437;19;20390;-25
2022/09/10 01:42:03;;;;;;;;;;;20.50;99.90;;;;;;4589134;19;20320;-25
2022/09/10 01:43:34;;;;;;;;;;;20.60;99.90;;;;;;4589009;19;19998;-25
2022/09/10 01:45:06;;;;;;;;;;;20.60;99.90;;;;;;4588914;19;19922;-25
2022/09/10 01:46:48;;;;;;;;;;;20.60;99.90;;;;;;4589275;19;19911;-25
2022/09/10 01:48:22;;;;;;;;;;;20.50;99.90;;;;;;4589265;19;20323;-24
2022/09/10 01:50:19;;;;;;;;;;;20.50;99.90;;;;;;4589031;19;19942;-25
2022/09/10 01:51:56;;;;;;;;;;;20.50;99.90;;;;;;4588690;19;19926;-27
2022/09/10 01:53:38;;;;;;;;;;;20.50;99.90;;;;;;4588735;19;19948;-25
2022/09/10 01:55:41;;;;;;;;;;;20.50;99.90;;;;;;4588928;19;19914;-26
2022/09/10 01:57:15;;;;;;;;;;;20.50;99.90;;;;;;4588483;19;19919;-24
2022/09/10 01:58:47;;;;;;;;;;;20.50;99.90;;;;;;4589030;19;19945;-25
2022/09/10 02:00:18;;;;;;;;;;;20.50;99.90;;;;;;4588443;19;19919;-25
2022/09/10 02:01:54;;;;;;;;;;;20.50;99.90;;;;;;4588658;19;19911;-24
2022/09/10 02:03:25;;;;;;;;;;;20.50;99.90;;;;;;4588357;19;20266;-27
2022/09/10 02:04:56;;;;;;;;;;;20.50;99.90;;;;;;4588551;19;19923;-25
2022/09/10 02:06:28;;;;;;;;;;;20.50;99.90;;;;;;4588289;19;19925;-25
2022/09/10 02:08:04;;;;;;;;;;;20.50;99.90;;;;;;4588337;19;19962;-25
2022/09/10 02:09:35;;;;;;;;;;;20.50;99.90;;;;;;4587619;19;20465;-25
2022/09/10 02:11:08;;;;;;;;;;;20.60;99.90;;;;;;4588763;19;19993;-27
2022/09/10 02:12:39;;;;;;;;;;;20.50;99.90;;;;;;4588525;19;20275;-25
2022/09/10 02:14:13;;;;;;;;;;;20.50;99.90;;;;;;4588482;19;19915;-25
2022/09/10 02:15:44;;;;;;;;;;;20.50;99.90;;;;;;4588244;19;20296;-25
2022/09/10 02:17:15;;;;;;;;;;;20.50;99.90;;;;;;4588675;19;19915;-26
2022/09/10 02:18:46;;;;;;;;;;;20.50;99.90;;;;;;4588416;19;19922;-25
2022/09/10 02:20:18;;;;;;;;;;;20.50;99.90;;;;;;4588193;19;19998;-27
2022/09/10 02:21:50;;;;;;;;;;;20.50;99.90;;;;;;4588476;19;19915;-25
2022/09/10 02:23:22;;;;;;;;;;;20.50;99.90;;;;;;4587938;19;19932;-25
2022/09/10 02:24:53;;;;;;;;;;;20.50;99.90;;;;;;4587400;19;19926;-25
2022/09/10 02:26:27;;;;;;;;;;;20.50;99.90;;;;;;4588334;19;20352;-25
2022/09/10 02:27:58;;;;;;;;;;;20.50;99.90;;;;;;4588208;19;20266;-25
2022/09/10 02:29:30;;;;;;;;;;;20.50;99.90;;;;;;4588212;19;19925;-25
2022/09/10 02:31:01;;;;;;;;;;;20.50;99.90;;;;;;4588292;19;19929;-25
2022/09/10 02:32:32;;;;;;;;;;;20.50;99.90;;;;;;4587960;19;19926;-27
2022/09/10 02:34:03;;;;;;;;;;;20.50;99.90;;;;;;4590459;19;20269;-27
2022/09/10 02:35:34;;;;;;;;;;;20.50;99.90;;;;;;4589216;19;19934;-25
2022/09/10 02:37:05;;;;;;;;;;;20.50;99.90;;;;;;4590043;19;19971;-26
2022/09/10 02:38:37;;;;;;;;;;;20.50;99.90;;;;;;4590140;19;19922;-26
2022/09/10 02:40:09;;;;;;;;;;;20.50;99.90;;;;;;4590563;19;19926;-26
2022/09/10 02:41:40;;;;;;;;;;;20.50;99.90;;;;;;4590241;19;19923;-26
2022/09/10 02:43:12;;;;;;;;;;;20.40;99.90;;;;;;4590266;19;19915;-25
2022/09/10 02:44:43;;;;;;;;;;;20.50;99.90;;;;;;4588742;19;19911;-25
2022/09/10 02:46:14;;;;;;;;;;;20.50;99.90;;;;;;4588615;19;19940;-24
2022/09/10 02:47:46;;;;;;;;;;;20.50;99.90;;;;;;4589137;19;20242;-25
2022/09/10 02:49:17;;;;;;;;;;;20.50;99.90;;;;;;4589867;19;20339;-26
2022/09/10 02:50:48;;;;;;;;;;;20.50;99.90;;;;;;4590384;19;19922;-25
2022/09/10 02:52:20;;;;;;;;;;;20.50;99.90;;;;;;4589106;19;19919;-24
2022/09/10 02:53:52;;;;;;;;;;;20.50;99.90;;;;;;4589540;19;20310;-26
2022/09/10 02:55:22;;;;;;;;;;;20.50;99.90;;;;;;4590144;19;19922;-25
2022/09/10 02:56:54;;;;;;;;;;;20.50;99.90;;;;;;4590366;19;20379;-25
2022/09/10 02:58:24;;;;;;;;;;;20.50;99.90;;;;;;4589820;19;20445;-25
2022/09/10 02:59:56;;;;;;;;;;;20.50;99.90;;;;;;4589947;19;19923;-25
2022/09/10 03:01:27;;;;;;;;;;;20.50;99.90;;;;;;4590069;19;19958;-25
2022/09/10 03:02:58;;;;;;;;;;;20.50;99.90;;;;;;4588764;19;19919;-24
2022/09/10 03:04:29;;;;;;;;;;;20.50;99.90;;;;;;4589302;19;19937;-27
2022/09/10 03:06:00;;;;;;;;;;;20.50;99.90;;;;;;4588906;19;19923;-27
2022/09/10 03:07:31;;;;;;;;;;;20.50;99.90;;;;;;4587914;19;19946;-26
2022/09/10 03:09:02;;;;;;;;;;;20.50;99.90;;;;;;4587868;19;19933;-25
2022/09/10 03:10:33;;;;;;;;;;;20.50;99.90;;;;;;4588754;19;19915;-25
2022/09/10 03:12:05;;;;;;;;;;;20.50;99.90;;;;;;4589031;19;19922;-27
2022/09/10 03:13:36;;;;;;;;;;;20.50;99.90;;;;;;4589614;19;19918;-25
2022/09/10 03:15:28;;;;;;;;;;;20.50;99.90;;;;;;4588459;19;19942;-25
2022/09/10 03:16:59;;;;;;;;;;;20.50;99.90;;;;;;4589597;19;19919;-25
2022/09/10 03:18:30;;;;;;;;;;;20.50;99.90;;;;;;4589463;19;20347;-26
2022/09/10 03:20:02;;;;;;;;;;;20.50;99.90;;;;;;4588484;19;19919;-26
2022/09/10 03:21:33;;;;;;;;;;;20.50;99.90;;;;;;4589257;19;19917;-24
2022/09/10 03:23:04;;;;;;;;;;;20.50;99.90;;;;;;4589567;19;20344;-27
2022/09/10 03:24:35;;;;;;;;;;;20.50;99.90;;;;;;4589329;19;19927;-27
2022/09/10 03:26:06;;;;;;;;;;;20.50;99.90;;;;;;4588632;19;19956;-25
2022/09/10 03:27:37;;;;;;;;;;;20.50;99.90;;;;;;4589488;19;20204;-25
2022/09/10 03:29:08;;;;;;;;;;;20.50;99.90;;;;;;4589403;19;19919;-25
2022/09/10 03:30:41;;;;;;;;;;;20.50;99.90;;;;;;4589751;19;19914;-25
2022/09/10 03:32:11;;;;;;;;;;;20.50;99.90;;;;;;4589695;19;19995;-26
2022/09/10 03:33:42;;;;;;;;;;;20.50;99.90;;;;;;4588056;19;19964;-25
2022/09/10 03:35:15;;;;;;;;;;;20.50;99.90;;;;;;4588074;19;19921;-25
2022/09/10 03:36:46;;;;;;;;;;;20.50;99.90;;;;;;4591332;19;19919;-24
2022/09/10 03:38:18;;;;;;;;;;;20.50;99.90;;;;;;4592753;19;19970;-25
2022/09/10 03:39:50;;;;;;;;;;;20.50;99.90;;;;;;4593523;19;20326;-27
2022/09/10 03:41:21;;;;;;;;;;;20.50;99.90;;;;;;4593998;19;20261;-25
2022/09/10 03:42:52;;;;;;;;;;;20.50;99.90;;;;;;4594095;19;20329;-25
2022/09/10 03:44:24;;;;;;;;;;;20.50;99.90;;;;;;4593541;19;19918;-25
2022/09/10 03:45:55;;;;;;;;;;;20.50;99.90;;;;;;4592495;19;19974;-27
2022/09/10 03:47:26;;;;;;;;;;;20.50;99.90;;;;;;4592736;19;19930;-25
2022/09/10 03:49:01;;;;;;;;;;;20.50;99.90;;;;;;4592538;19;20345;-25
2022/09/10 03:50:32;;;;;;;;;;;20.50;99.90;;;;;;4593309;19;19919;-25
2022/09/10 03:52:03;;;;;;;;;;;20.50;99.90;;;;;;4592404;19;19928;-27
2022/09/10 03:53:34;;;;;;;;;;;20.50;99.90;;;;;;4593295;19;19915;-27
2022/09/10 03:55:05;;;;;;;;;;;20.50;99.90;;;;;;4593521;19;20340;-24
2022/09/10 03:56:36;;;;;;;;;;;20.50;99.90;;;;;;4593469;19;19919;-25
2022/09/10 03:58:07;;;;;;;;;;;20.50;99.90;;;;;;4593630;19;19911;-24
2022/09/10 03:59:39;;;;;;;;;;;20.50;99.90;;;;;;4591011;19;19919;-25
2022/09/10 04:01:11;;;;;;;;;;;20.50;99.90;;;;;;4592660;19;19940;-25
2022/09/10 04:02:43;;;;;;;;;;;20.60;99.90;;;;;;4593476;19;19942;-27
2022/09/10 04:04:14;;;;;;;;;;;20.60;99.90;;;;;;4592296;19;19926;-26
2022/09/10 04:05:45;;;;;;;;;;;20.50;99.90;;;;;;4592243;19;19917;-26
2022/09/10 04:07:16;;;;;;;;;;;20.50;99.90;;;;;;4592304;19;19923;-25
2022/09/10 04:08:51;;;;;;;;;;;20.50;99.90;;;;;;4592725;19;20269;-25
2022/09/10 04:10:23;;;;;;;;;;;20.50;99.90;;;;;;4593125;19;19938;-25
2022/09/10 04:11:54;;;;;;;;;;;20.50;99.90;;;;;;4593318;19;19914;-25
2022/09/10 04:13:25;;;;;;;;;;;20.50;99.90;;;;;;4593152;19;20347;-26
2022/09/10 04:14:56;;;;;;;;;;;20.50;99.90;;;;;;4592177;19;19911;-25
2022/09/10 04:16:27;;;;;;;;;;;20.50;99.90;;;;;;4593203;19;19931;-26
2022/09/10 04:17:58;;;;;;;;;;;20.50;99.90;;;;;;4593068;19;19947;-25
2022/09/10 04:19:29;;;;;;;;;;;20.50;99.90;;;;;;4591934;19;19919;-27
2022/09/10 04:21:00;;;;;;;;;;;20.50;99.90;;;;;;4592439;19;19938;-25
2022/09/10 04:22:31;;;;;;;;;;;20.50;99.90;;;;;;4592121;19;19919;-24
2022/09/10 04:24:02;;;;;;;;;;;20.50;99.90;;;;;;4592627;19;19915;-27
2022/09/10 04:25:33;;;;;;;;;;;20.50;99.90;;;;;;4592120;19;19919;-25
2022/09/10 04:27:05;;;;;;;;;;;20.50;99.90;;;;;;4593120;19;19919;-25
2022/09/10 04:28:37;;;;;;;;;;;20.50;99.90;;;;;;4592846;19;19910;-25
2022/09/10 04:30:08;;;;;;;;;;;20.50;99.90;;;;;;4591599;19;19943;-27
2022/09/10 04:31:40;;;;;;;;;;;20.50;99.90;;;;;;4592324;19;19927;-24
2022/09/10 04:33:11;;;;;;;;;;;20.50;99.90;;;;;;4592995;19;19915;-25
2022/09/10 04:34:43;;;;;;;;;;;20.50;99.90;;;;;;4592720;19;19969;-25
2022/09/10 04:36:14;;;;;;;;;;;20.50;99.90;;;;;;4591478;19;19915;-24
2022/09/10 04:37:45;;;;;;;;;;;20.50;99.90;;;;;;4594235;19;19926;-25
2022/09/10 04:39:16;;;;;;;;;;;20.50;99.90;;;;;;4594581;19;19914;-25
2022/09/10 04:40:47;;;;;;;;;;;20.50;99.90;;;;;;4594480;19;20481;-26
2022/09/10 04:42:19;;;;;;;;;;;20.50;99.90;;;;;;4593753;19;19925;-26
2022/09/10 04:43:50;;;;;;;;;;;20.50;99.90;;;;;;4594416;19;19983;-25
2022/09/10 04:45:21;;;;;;;;;;;20.50;99.90;;;;;;4594356;19;19919;-25
2022/09/10 04:46:52;;;;;;;;;;;20.50;99.90;;;;;;4593314;19;19915;-26
2022/09/10 04:48:23;;;;;;;;;;;20.50;99.90;;;;;;4594392;19;19923;-25
2022/09/10 04:49:54;;;;;;;;;;;20.50;99.90;;;;;;4594351;19;20376;-27
2022/09/10 04:51:25;;;;;;;;;;;20.50;99.90;;;;;;4594670;19;19918;-26
2022/09/10 04:52:57;;;;;;;;;;;20.50;99.90;;;;;;4594700;19;19918;-23
2022/09/10 04:54:28;;;;;;;;;;;20.50;99.90;;;;;;4592464;19;19931;-25
2022/09/10 04:56:00;;;;;;;;;;;20.50;99.90;;;;;;4591215;19;19923;-25
2022/09/10 04:57:31;;;;;;;;;;;20.50;99.90;;;;;;4592212;19;19926;-25
2022/09/10 04:59:02;;;;;;;;;;;20.50;99.90;;;;;;4590990;19;20341;-27
2022/09/10 05:00:33;;;;;;;;;;;20.50;99.90;;;;;;4591449;19;19935;-25
2022/09/10 05:02:05;;;;;;;;;;;20.50;99.90;;;;;;4592484;19;19935;-25
2022/09/10 05:03:36;;;;;;;;;;;20.50;99.90;;;;;;4590741;19;19919;-24
2022/09/10 05:05:07;;;;;;;;;;;20.50;99.90;;;;;;4591391;19;19915;-25
2022/09/10 05:06:38;;;;;;;;;;;20.50;99.90;;;;;;4590531;19;19926;-24
2022/09/10 05:08:11;;;;;;;;;;;20.50;99.90;;;;;;4591905;19;19945;-25
2022/09/10 05:09:42;;;;;;;;;;;20.50;99.90;;;;;;4590759;19;19942;-24
2022/09/10 05:11:13;;;;;;;;;;;20.50;99.90;;;;;;4590512;19;19919;-24
2022/09/10 05:12:44;;;;;;;;;;;20.60;99.90;;;;;;4591524;19;19923;-26
2022/09/10 05:14:16;;;;;;;;;;;20.50;99.90;;;;;;4592271;19;20392;-25
2022/09/10 05:15:48;;;;;;;;;;;20.60;99.90;;;;;;4591631;19;19914;-25
2022/09/10 05:17:19;;;;;;;;;;;20.50;99.90;;;;;;4591760;19;19938;-26
2022/09/10 05:18:50;;;;;;;;;;;20.50;99.90;;;;;;4591618;19;19978;-24
2022/09/10 05:20:21;;;;;;;;;;;20.50;99.90;;;;;;4591843;19;19914;-25
2022/09/10 05:21:52;;;;;;;;;;;20.50;99.90;;;;;;4589200;19;19911;-24
2022/09/10 05:23:23;;;;;;;;;;;20.50;99.90;;;;;;4592395;19;19919;-25
2022/09/10 05:24:54;;;;;;;;;;;20.50;99.90;;;;;;4592284;19;19922;-25
2022/09/10 05:26:26;;;;;;;;;;;20.50;99.90;;;;;;4591127;19;20354;-24
2022/09/10 05:27:59;;;;;;;;;;;20.50;99.90;;;;;;4591518;19;19915;-23
2022/09/10 05:29:31;;;;;;;;;;;20.50;99.90;;;;;;4592067;19;19946;-26
2022/09/10 05:31:02;;;;;;;;;;;20.50;99.90;;;;;;4590487;19;20337;-23
2022/09/10 05:32:34;;;;;;;;;;;20.50;99.90;;;;;;4590781;19;19931;-24
2022/09/10 05:34:07;;;;;;;;;;;20.50;99.90;;;;;;4590347;19;19948;-26
2022/09/10 05:35:39;;;;;;;;;;;20.50;99.90;;;;;;4590000;19;19919;-24
2022/09/10 05:37:11;;;;;;;;;;;20.50;99.90;;;;;;4591393;19;19952;-25
2022/09/10 05:38:42;;;;;;;;;;;20.50;99.90;;;;;;4591891;19;19926;-24
2022/09/10 05:40:13;;;;;;;;;;;20.50;99.90;;;;;;4591519;19;19918;-24
2022/09/10 05:41:44;;;;;;;;;;;20.50;99.90;;;;;;4589924;19;20258;-26
2022/09/10 05:43:19;;;;;;;;;;;20.50;99.90;;;;;;4587434;19;20479;-25
2022/09/10 05:44:56;;;;;;;;;;;20.50;99.90;;;;;;4589920;19;19915;-24
2022/09/10 05:46:29;;;;;;;;;;;20.50;99.90;;;;;;4589098;19;19927;-27
2022/09/10 05:48:02;;;;;;;;;;;20.50;99.90;;;;;;4589893;19;20338;-24
2022/09/10 05:49:39;;;;;;;;;;;20.50;99.90;;;;;;4589950;19;19926;-24
2022/09/10 05:51:14;;;;;;;;;;;20.50;99.90;;;;;;4589379;19;19922;-26
2022/09/10 05:52:46;;;;;;;;;;;20.50;99.90;;;;;;4588999;19;19997;-24
2022/09/10 05:54:17;;;;;;;;;;;20.50;99.90;;;;;;4589240;19;19915;-25
2022/09/10 05:55:51;;;;;;;;;;;20.50;99.90;;;;;;4591733;19;19919;-25
2022/09/10 05:57:25;;;;;;;;;;;20.50;99.90;;;;;;4591830;19;19927;-24
2022/09/10 05:58:57;;;;;;;;;;;20.50;99.90;;;;;;4590136;19;19915;-25
2022/09/10 06:00:28;;;;;;;;;;;20.50;99.90;;;;;;4590920;19;19935;-24
2022/09/10 06:01:59;;;;;;;;;;;20.50;99.90;;;;;;4590623;19;19915;-25
2022/09/10 06:03:30;;;;;;;;;;;20.50;99.90;;;;;;4589986;19;19930;-26
2022/09/10 06:05:02;;;;;;;;;;;20.50;99.90;;;;;;4589535;19;20349;-27
2022/09/10 06:06:33;;;;;;;;;;;20.50;99.90;;;;;;4588052;19;19922;-27
2022/09/10 06:08:05;;;;;;;;;;;20.50;99.90;;;;;;4588493;19;20341;-26
2022/09/10 06:09:39;;;;;;;;;;;20.50;99.90;;;;;;4590922;19;19965;-23
2022/09/10 06:11:11;;;;;;;;;;;20.60;99.90;;;;;;4589579;19;19922;-25
2022/09/10 06:12:51;;;;;;;;;;;20.50;99.90;;;;;;4587007;19;19930;-25
2022/09/10 06:14:23;;;;;;;;;;;20.50;99.90;;;;;;4589389;19;19954;-25
2022/09/10 06:15:54;;;;;;;;;;;20.50;99.90;;;;;;4590619;19;19927;-25
2022/09/10 06:17:25;;;;;;;;;;;20.50;99.90;;;;;;4590469;19;19933;-24
2022/09/10 06:18:58;;;;;;;;;;;20.50;99.90;;;;;;4592025;19;19929;-24
2022/09/10 06:20:29;;;;;;;;;;;20.50;99.90;;;;;;4590202;19;20352;-26
2022/09/10 06:22:00;;;;;;;;;;;20.50;99.90;;;;;;4589438;19;20418;-25
2022/09/10 06:23:31;;;;;;;;;;;20.50;99.90;;;;;;4590476;19;19930;-25
2022/09/10 06:25:02;;;;;;;;;;;20.50;99.90;;;;;;4588798;19;19927;-27
2022/09/10 06:26:39;;;;;;;;;;;20.50;99.90;;;;;;4590770;19;19923;-25
2022/09/10 06:28:14;;;;;;;;;;;20.60;99.90;;;;;;4590334;19;19923;-24
2022/09/10 06:29:47;;;;;;;;;;;20.50;99.90;;;;;;4590820;19;19918;-24
2022/09/10 06:31:22;;;;;;;;;;;20.50;99.90;;;;;;4588535;19;19986;-24
2022/09/10 06:32:54;;;;;;;;;;;20.60;99.90;;;;;;4590281;19;20296;-24
2022/09/10 06:34:25;;;;;;;;;;;20.50;99.90;;;;;;4588679;19;19922;-26
2022/09/10 06:35:57;;;;;;;;;;;20.50;99.90;;;;;;4589767;19;19927;-25
2022/09/10 06:37:33;;;;;;;;;;;20.50;99.90;;;;;;4590140;19;19930;-25
2022/09/10 06:39:06;;;;;;;;;;;20.60;99.90;;;;;;4589236;19;20258;-25
2022/09/10 06:40:37;;;;;;;;;;;20.60;99.90;;;;;;4588562;19;19930;-24
2022/09/10 06:42:08;;;;;;;;;;;20.60;99.90;;;;;;4589996;19;19922;-25
2022/09/10 06:43:40;;;;;;;;;;;20.60;99.90;;;;;;4591081;19;19919;-26
2022/09/10 06:45:27;;;;;;;;;;;20.60;99.90;;;;;;4589885;19;19993;-24
2022/09/10 06:47:03;;;;;;;;;;;20.60;99.90;;;;;;4591454;19;19919;-24
2022/09/10 06:48:38;;;;;;;;;;;20.60;99.90;;;;;;4590119;19;19915;-22
2022/09/10 06:50:09;;;;;;;;;;;20.50;99.90;;;;;;4589201;19;19923;-24
2022/09/10 06:51:41;;;;;;;;;;;20.60;99.90;;;;;;4589897;19;19922;-23
2022/09/10 06:53:12;;;;;;;;;;;20.60;99.90;;;;;;4589119;19;19922;-26
2022/09/10 06:54:44;;;;;;;;;;;20.60;99.90;;;;;;4589847;19;19933;-24
2022/09/10 06:56:16;;;;;;;;;;;20.60;99.90;;;;;;4589817;19;20321;-23
2022/09/10 06:57:47;;;;;;;;;;;20.60;99.90;;;;;;4589244;19;19936;-25
2022/09/10 06:59:21;;;;;;;;;;;20.60;99.90;;;;;;4589506;19;19919;-23
2022/09/10 07:00:53;;;;;;;;;;;20.60;99.90;;;;;;4589933;19;19919;-24
2022/09/10 07:02:24;;;;;;;;;;;20.60;99.90;;;;;;4589518;19;20242;-24
2022/09/10 07:03:55;;;;;;;;;;;20.60;99.90;;;;;;4589591;19;19926;-23
2022/09/10 07:05:28;;;;;;;;;;;20.60;99.90;;;;;;4587956;19;19918;-25
2022/09/10 07:06:59;;;;;;;;;;;20.60;99.90;;;;;;4589195;19;19919;-24
2022/09/10 07:08:31;;;;;;;;;;;20.70;99.90;;;;;;4588966;19;19919;-24
2022/09/10 07:10:07;;;;;;;;;;;20.70;99.90;;;;;;4588664;19;19954;-25
2022/09/10 07:11:38;;;;;;;;;;;20.70;99.90;;;;;;4591968;19;20332;-24
2022/09/10 07:13:10;;;;;;;;;;;20.70;99.90;;;;;;4596868;19;19923;-24
2022/09/10 07:14:42;;;;;;;;;;;20.70;99.90;;;;;;4594080;19;19938;-24
2022/09/10 07:16:12;;;;;;;;;;;20.70;99.90;;;;;;4594219;19;20234;-24
2022/09/10 07:17:44;;;;;;;;;;;20.70;99.90;;;;;;4592770;19;19919;-24
2022/09/10 07:19:16;;;;;;;;;;;20.70;99.90;;;;;;4594160;19;20336;-25
2022/09/10 07:20:47;;;;;;;;;;;20.70;99.90;;;;;;4593750;19;19915;-25
2022/09/10 07:22:27;;;;;;;;;;;20.70;99.90;;;;;;4592597;19;19921;-26
2022/09/10 07:24:06;;;;;;;;;;;20.70;99.90;;;;;;4593011;19;20007;-23
2022/09/10 07:25:38;;;;;;;;;;;20.70;99.90;;;;;;4592937;19;19922;-26
2022/09/10 07:27:13;;;;;;;;;;;20.70;99.90;;;;;;4593513;19;19919;-24
2022/09/10 07:28:48;;;;;;;;;;;20.70;99.90;;;;;;4593667;19;19978;-23
2022/09/10 07:30:21;;;;;;;;;;;20.70;99.90;;;;;;4592468;19;19919;-25
2022/09/10 07:31:56;;;;;;;;;;;20.70;99.90;;;;;;4593645;19;19915;-25
2022/09/10 07:33:35;;;;;;;;;;;20.80;99.90;;;;;;4592688;19;19926;-25
2022/09/10 07:35:06;;;;;;;;;;;20.80;99.90;;;;;;4593956;19;19919;-27
2022/09/10 07:36:37;;;;;;;;;;;20.80;99.90;;;;;;4592424;19;19944;-24
2022/09/10 07:38:12;;;;;;;;;;;20.80;99.90;;;;;;4596015;19;19934;-25
2022/09/10 07:39:44;;;;;;;;;;;20.80;99.90;;;;;;4592626;19;19936;-24
2022/09/10 07:41:15;;;;;;;;;;;20.80;99.90;;;;;;4593297;19;20003;-25
2022/09/10 07:42:51;;;;;;;;;;;20.80;99.90;;;;;;4593976;19;19922;-25
2022/09/10 07:44:30;;;;;;;;;;;20.80;99.90;;;;;;4593629;19;19922;-24
2022/09/10 07:46:03;;;;;;;;;;;20.80;99.90;;;;;;4592074;19;19919;-25
2022/09/10 07:47:36;;;;;;;;;;;20.80;99.90;;;;;;4592304;19;19915;-26
2022/09/10 07:49:09;;;;;;;;;;;20.80;99.90;;;;;;4592348;19;20580;-25
2022/09/10 07:50:45;;;;;;;;;;;20.80;99.90;;;;;;4593132;19;19974;-25
2022/09/10 07:52:20;;;;;;;;;;;20.70;99.90;;;;;;4593138;19;19943;-25
2022/09/10 07:54:51;;;;;;;;;;;20.80;99.90;;;;;;4592580;19;20018;-25
2022/09/10 07:56:29;;;;;;;;;;;20.80;99.90;;;;;;4591441;19;19919;-27
2022/09/10 07:58:02;;;;;;;;;;;20.80;99.90;;;;;;4590711;19;19914;-25
2022/09/10 07:59:35;;;;;;;;;;;20.80;99.90;;;;;;4590895;19;19998;-24
2022/09/10 08:01:09;;;;;;;;;;;20.70;99.90;;;;;;4591249;19;19923;-25
2022/09/10 08:02:41;;;;;;;;;;;20.80;99.90;;;;;;4590863;19;19948;-26
2022/09/10 08:04:13;;;;;;;;;;;20.70;99.90;;;;;;4590802;19;19919;-25
2022/09/10 08:05:49;;;;;;;;;;;20.80;99.90;;;;;;4589700;19;19922;-25
2022/09/10 08:07:20;;;;;;;;;;;20.80;99.90;;;;;;4590187;19;19991;-25
2022/09/10 08:09:02;;;;;;;;;;;20.80;99.90;;;;;;4590028;19;19938;-25
2022/09/10 08:10:41;;;;;;;;;;;20.70;99.90;;;;;;4590456;19;19915;-25
2022/09/10 08:12:16;;;;;;;;;;;20.70;99.90;;;;;;4590459;19;19944;-25
2022/09/10 08:13:52;;;;;;;;;;;20.80;99.90;;;;;;4590709;19;19919;-26
2022/09/10 08:15:24;;;;;;;;;;;20.90;99.90;;;;;;4590757;19;19938;-25
2022/09/10 08:16:55;;;;;;;;;;;21.00;99.90;;;;;;4590345;19;19953;-23
2022/09/10 08:18:28;;;;;;;;;;;21.10;99.90;;;;;;4593030;19;20352;-26
2022/09/10 08:20:00;;;;;;;;;;;21.20;99.90;;;;;;4590897;19;19925;-25
2022/09/10 08:21:31;;;;;;;;;;;21.20;99.90;;;;;;4591125;19;19991;-25
2022/09/10 08:23:02;;;;;;;;;;;21.30;99.90;;;;;;4590394;19;20285;-25
2022/09/10 08:24:33;;;;;;;;;;;21.20;99.90;;;;;;4590534;19;19919;-25
2022/09/10 08:26:07;;;;;;;;;;;21.20;99.90;;;;;;4589833;19;19921;-25
2022/09/10 08:27:41;;;;;;;;;;;21.10;99.90;;;;;;4590301;19;19922;-25
2022/09/10 08:29:12;;;;;;;;;;;21.00;99.90;;;;;;4590133;19;19919;-25
2022/09/10 08:31:00;;;;;;;;;;;20.90;99.90;;;;;;4590475;19;19932;-25
2022/09/10 08:32:32;;;;;;;;;;;20.90;99.90;;;;;;4590657;19;19926;-25
2022/09/10 08:34:04;;;;;;;;;;;20.80;99.90;;;;;;4590862;19;19922;-25
2022/09/10 08:35:36;;;;;;;;;;;20.80;99.90;;;;;;4590153;19;19933;-25
2022/09/10 08:37:07;;;;;;;;;;;20.80;99.90;;;;;;4590309;19;19922;-27
2022/09/10 08:38:38;;;;;;;;;;;20.80;99.90;;;;;;4590163;19;20385;-25
2022/09/10 08:40:12;;;;;;;;;;;18.80;99.90;;;;;;4590266;19;20327;-24
2022/09/10 08:41:51;;;;;;;;;;;18.00;99.90;;;;;;4592237;19;20253;-25
2022/09/10 08:43:25;;;;;;;;;;;17.70;99.90;;;;;;4591232;19;19989;-24
2022/09/10 08:44:59;;;;;;;;;;;17.60;99.90;;;;;;4592582;19;20360;-24
2022/09/10 08:46:36;;;;;;;;;;;17.40;99.90;;;;;;4590635;19;19915;-24
2022/09/10 08:48:15;;;;;;;;;;;17.40;99.90;;;;;;4592109;19;19914;-25
2022/09/10 08:49:57;;;;;;;;;;;17.40;99.90;;;;;;4592363;19;19919;-24
2022/09/10 08:51:28;;;;;;;;;;;17.40;99.90;;;;;;4591764;19;20329;-26
2022/09/10 08:53:04;;;;;;;;;;;17.40;99.90;;;;;;4591200;19;20358;-24
2022/09/10 08:54:48;;;;;;;;;;;17.40;99.90;;;;;;4591690;19;19970;-24
2022/09/10 08:56:20;;;;;;;;;;;17.40;99.90;;;;;;4591314;19;19915;-24
2022/09/10 08:57:58;;;;;;;;;;;17.30;99.90;;;;;;4590652;19;19915;-25
2022/09/10 08:59:32;;;;;;;;;;;17.30;99.90;;;;;;4591050;19;20364;-26
2022/09/10 09:01:03;;;;;;;;;;;17.30;99.90;;;;;;4592722;19;19923;-24
2022/09/10 09:02:55;;;;;;;;;;;17.30;99.90;;;;;;4591758;19;19919;-26